Time,TemperatureF,DewpointF,PressureIn,WindDirection,WindDirectionDegrees,WindSpeedMPH,WindSpeedGustMPH,Humidity,HourlyPrecipIn,Conditions,Clouds,dailyrainin,SolarRadiationWatts/m^2,SoftwareType,DateUTC
2013-10-28 00:01:00,66.7,59.3,30.09,SE,135,0.0,0.2,77,0.00,RA,,0.00,730.0,WeatherDisplay:10.37,2013-10-28 05:01:00,
2013-10-28 00:06:00,66.7,59.3,30.09,SE,135,1.2,1.2,77,0.00,RA,,0.00,730.0,WeatherDisplay:10.37,2013-10-28 05:06:00,
2013-10-28 00:11:00,66.7,59.3,30.08,SE,135,1.2,1.2,77,0.00,CLR,,0.00,730.0,WeatherDisplay:10.37,2013-10-28 05:11:00,
2013-10-28 00:16:00,66.7,59.3,30.08,SSE,158,2.3,2.3,77,0.00,CLR,,0.00,730.0,WeatherDisplay:10.37,2013-10-28 05:16:00,
2013-10-28 00:21:00,66.7,59.3,30.08,SE,135,2.3,2.3,77,0.00,CLR,,0.00,730.0,WeatherDisplay:10.37,2013-10-28 05:21:00,
2013-10-28 00:26:00,66.7,59.3,30.08,ESE,112,1.2,1.2,77,0.00,CLR,,0.00,730.0,WeatherDisplay:10.37,2013-10-28 05:26:00,
2013-10-28 00:31:00,66.7,59.3,30.08,SSE,158,1.2,1.2,77,0.00,CLR,,0.00,730.0,WeatherDisplay:10.37,2013-10-28 05:31:00,
2013-10-28 00:36:00,66.7,59.3,30.08,SE,135,1.5,1.5,77,0.00,CLR,,0.00,730.0,WeatherDisplay:10.37,2013-10-28 05:36:00,
2013-10-28 00:41:00,66.7,59.3,30.08,SE,135,1.2,1.2,77,0.00,CLR,,0.00,730.0,WeatherDisplay:10.37,2013-10-28 05:41:00,
2013-10-28 00:46:00,66.7,59.3,30.08,SSE,158,2.3,2.3,77,0.00,CLR,,0.00,730.0,WeatherDisplay:10.37,2013-10-28 05:46:00,
2013-10-28 00:51:00,66.7,59.3,30.08,SE,135,1.2,1.2,77,0.00,CLR,,0.00,730.0,WeatherDisplay:10.37,2013-10-28 05:51:00,
2013-10-28 00:56:00,66.7,59.3,30.08,SSE,158,2.3,2.3,77,0.00,CLR,,0.00,730.0,WeatherDisplay:10.37,2013-10-28 05:56:00,
2013-10-28 01:01:00,66.7,59.3,30.08,SSE,158,1.2,1.2,77,0.00,CLR,,0.00,730.0,WeatherDisplay:10.37,2013-10-28 06:01:00,
2013-10-28 01:06:00,66.7,59.3,30.08,SSE,158,1.2,1.2,77,0.00,CLR,,0.00,730.0,WeatherDisplay:10.37,2013-10-28 06:06:00,
2013-10-28 01:11:00,66.7,59.3,30.08,SSE,158,2.3,2.3,77,0.00,CLR,,0.00,730.0,WeatherDisplay:10.37,2013-10-28 06:11:00,
2013-10-28 01:16:00,66.7,59.3,30.08,ESE,112,2.3,2.3,77,0.00,CLR,,0.00,730.0,WeatherDisplay:10.37,2013-10-28 06:16:00,
2013-10-28 01:21:00,66.7,59.3,30.08,SE,135,3.5,3.5,77,0.00,CLR,,0.00,730.0,WeatherDisplay:10.37,2013-10-28 06:21:00,
2013-10-28 01:26:00,66.7,59.3,30.08,SSE,158,1.4,1.4,77,0.00,CLR,,0.00,730.0,WeatherDisplay:10.37,2013-10-28 06:26:00,
2013-10-28 01:31:00,66.7,59.3,30.08,SSE,158,1.2,1.2,77,0.00,CLR,,0.00,730.0,WeatherDisplay:10.37,2013-10-28 06:31:00,
2013-10-28 01:36:00,66.7,59.3,30.08,SSE,158,2.3,2.3,77,0.00,CLR,,0.00,730.0,WeatherDisplay:10.37,2013-10-28 06:36:00,
2013-10-28 01:41:00,66.7,59.3,30.08,SE,135,2.3,2.3,77,0.00,CLR,,0.00,730.0,WeatherDisplay:10.37,2013-10-28 06:41:00,
2013-10-28 01:46:00,66.7,59.3,30.08,SE,135,2.3,2.3,77,0.00,CLR,,0.00,730.0,WeatherDisplay:10.37,2013-10-28 06:46:00,
2013-10-28 01:51:00,66.7,59.3,30.08,NNE,22,2.3,2.3,77,0.00,CLR,,0.00,730.0,WeatherDisplay:10.37,2013-10-28 06:51:00,
2013-10-28 01:56:00,66.7,59.3,30.08,ESE,112,2.3,2.3,77,0.00,CLR,,0.00,730.0,WeatherDisplay:10.37,2013-10-28 06:56:00,
2013-10-28 02:01:00,66.7,59.3,30.08,South,180,2.3,2.3,77,0.00,CLR,,0.00,730.0,WeatherDisplay:10.37,2013-10-28 07:01:00,
2013-10-28 02:06:00,66.7,59.3,30.08,SSE,158,3.5,3.5,77,0.00,CLR,,0.00,730.0,WeatherDisplay:10.37,2013-10-28 07:06:00,
2013-10-28 02:12:00,66.7,59.3,30.07,SSE,158,2.3,2.3,77,0.00,CLR,,0.00,730.0,WeatherDisplay:10.37,2013-10-28 07:12:00,
2013-10-28 02:17:00,66.7,59.3,30.07,SE,135,1.2,1.3,77,0.00,CLR,,0.00,0.0,WeatherDisplay:10.37,2013-10-28 07:17:00,
2013-10-28 02:22:00,66.7,59.3,30.07,South,180,2.3,2.3,77,0.00,CLR,,0.00,0.0,WeatherDisplay:10.37,2013-10-28 07:22:00,
2013-10-28 02:27:00,66.7,59.3,30.07,South,180,0.0,0.8,77,0.00,CLR,,0.00,0.0,WeatherDisplay:10.37,2013-10-28 07:27:00,
2013-10-28 02:32:00,66.7,59.3,30.07,SSE,158,2.3,2.3,77,0.00,CLR,,0.00,0.0,WeatherDisplay:10.37,2013-10-28 07:32:00,
2013-10-28 02:37:00,66.7,59.3,30.07,SE,135,1.2,1.2,77,0.00,CLR,,0.00,730.0,WeatherDisplay:10.37,2013-10-28 07:37:00,
2013-10-28 02:42:00,66.7,59.3,30.07,SE,135,3.5,3.5,77,0.00,CLR,,0.00,0.0,WeatherDisplay:10.37,2013-10-28 07:42:00,
2013-10-28 02:47:00,66.7,59.3,30.07,South,180,1.2,1.2,77,0.00,CLR,,0.00,0.0,WeatherDisplay:10.37,2013-10-28 07:47:00,
2013-10-28 02:52:00,66.7,59.3,30.08,SSE,158,3.5,3.5,77,0.00,CLR,,0.00,0.0,WeatherDisplay:10.37,2013-10-28 07:52:00,
2013-10-28 02:57:00,66.7,59.3,30.08,South,180,2.3,2.3,77,0.00,CLR,,0.00,0.0,WeatherDisplay:10.37,2013-10-28 07:57:00,
2013-10-28 03:02:00,66.7,59.3,30.08,SSE,158,3.1,3.1,77,0.00,CLR,,0.00,730.0,WeatherDisplay:10.37,2013-10-28 08:02:00,
2013-10-28 03:07:00,66.7,59.3,30.08,SSE,158,3.5,3.5,77,0.00,CLR,,0.00,730.0,WeatherDisplay:10.37,2013-10-28 08:07:00,
2013-10-28 03:12:00,66.7,59.3,30.07,SE,135,3.5,3.5,77,0.00,CLR,,0.00,730.0,WeatherDisplay:10.37,2013-10-28 08:12:00,
2013-10-28 03:17:00,66.7,59.3,30.07,SSE,158,1.5,1.5,77,0.00,CLR,,0.00,730.0,WeatherDisplay:10.37,2013-10-28 08:17:00,
2013-10-28 03:22:00,66.7,59.3,30.07,SSE,158,2.6,2.6,77,0.00,CLR,,0.00,730.0,WeatherDisplay:10.37,2013-10-28 08:22:00,
2013-10-28 03:27:00,66.7,59.3,30.07,SSE,158,3.5,3.5,77,0.00,CLR,,0.00,730.0,WeatherDisplay:10.37,2013-10-28 08:27:00,
2013-10-28 03:32:00,66.7,59.3,30.08,SE,135,1.2,1.4,77,0.00,CLR,,0.00,730.0,WeatherDisplay:10.37,2013-10-28 08:32:00,
2013-10-28 03:37:00,66.7,59.3,30.08,SSE,158,1.2,1.3,77,0.00,CLR,,0.00,730.0,WeatherDisplay:10.37,2013-10-28 08:37:00,
2013-10-28 03:42:00,66.7,59.3,30.08,SE,135,1.2,1.2,77,0.00,CLR,,0.00,730.0,WeatherDisplay:10.37,2013-10-28 08:42:00,
2013-10-28 03:47:00,66.7,59.3,30.08,SSE,158,1.2,1.2,77,0.00,CLR,,0.00,730.0,WeatherDisplay:10.37,2013-10-28 08:47:00,
2013-10-28 03:52:00,66.7,59.3,30.08,SSE,158,2.3,2.3,77,0.00,CLR,,0.00,730.0,WeatherDisplay:10.37,2013-10-28 08:52:00,
2013-10-28 03:57:00,66.7,59.3,30.08,SE,135,2.3,2.3,77,0.00,CLR,,0.00,730.0,WeatherDisplay:10.37,2013-10-28 08:57:00,
2013-10-28 04:02:00,66.7,59.3,30.08,SE,135,4.6,4.6,77,0.00,CLR,,0.00,730.0,WeatherDisplay:10.37,2013-10-28 09:02:00,
2013-10-28 04:07:00,66.7,59.3,30.08,South,180,1.2,2.1,77,0.00,CLR,,0.00,730.0,WeatherDisplay:10.37,2013-10-28 09:07:00,
2013-10-28 04:12:00,66.7,59.3,30.08,ESE,112,2.3,2.3,77,0.00,CLR,,0.00,730.0,WeatherDisplay:10.37,2013-10-28 09:12:00,
2013-10-28 04:17:00,66.7,59.3,30.08,SE,135,1.5,1.5,77,0.00,CLR,,0.00,730.0,WeatherDisplay:10.37,2013-10-28 09:17:00,
2013-10-28 04:22:00,66.7,59.3,30.08,SSE,158,2.3,2.3,77,0.00,CLR,,0.00,730.0,WeatherDisplay:10.37,2013-10-28 09:22:00,
2013-10-28 04:27:00,66.7,59.3,30.09,SSE,158,1.8,1.8,77,0.00,CLR,,0.00,730.0,WeatherDisplay:10.37,2013-10-28 09:27:00,
2013-10-28 04:32:00,66.7,59.3,30.09,SSE,158,1.5,1.5,77,0.00,CLR,,0.00,730.0,WeatherDisplay:10.37,2013-10-28 09:32:00,
2013-10-28 04:37:00,66.7,59.3,30.09,SE,135,1.8,1.8,77,0.00,CLR,,0.00,730.0,WeatherDisplay:10.37,2013-10-28 09:37:00,
2013-10-28 04:42:00,66.7,59.3,30.09,SE,135,1.2,1.2,77,0.00,CLR,,0.00,730.0,WeatherDisplay:10.37,2013-10-28 09:42:00,
2013-10-28 04:47:00,66.7,59.3,30.08,SE,135,2.3,2.3,77,0.00,CLR,,0.00,730.0,WeatherDisplay:10.37,2013-10-28 09:47:00,
2013-10-28 04:52:00,66.7,59.3,30.08,ESE,112,3.5,3.5,77,0.00,CLR,,0.00,730.0,WeatherDisplay:10.37,2013-10-28 09:52:00,
2013-10-28 04:57:00,66.7,59.3,30.08,ESE,112,3.5,3.5,77,0.00,CLR,,0.00,730.0,WeatherDisplay:10.37,2013-10-28 09:57:00,
2013-10-28 05:02:00,66.7,59.3,30.08,SSE,158,4.6,4.6,77,0.00,CLR,,0.00,730.0,WeatherDisplay:10.37,2013-10-28 10:02:00,
2013-10-28 05:07:00,66.7,59.3,30.08,SSE,158,0.0,1.5,77,0.00,CLR,,0.00,730.0,WeatherDisplay:10.37,2013-10-28 10:07:00,
2013-10-28 05:12:00,66.7,59.3,30.08,ESE,112,3.5,3.5,77,0.00,CLR,,0.00,730.0,WeatherDisplay:10.37,2013-10-28 10:12:00,
2013-10-28 05:17:00,66.7,59.3,30.08,SSE,158,4.6,4.6,77,0.00,CLR,,0.00,730.0,WeatherDisplay:10.37,2013-10-28 10:17:00,
2013-10-28 05:22:00,66.7,59.3,30.08,SE,135,2.3,2.3,77,0.00,CLR,,0.00,730.0,WeatherDisplay:10.37,2013-10-28 10:22:00,
2013-10-28 05:27:00,66.7,59.3,30.08,SE,135,4.6,4.6,77,0.00,CLR,,0.00,730.0,WeatherDisplay:10.37,2013-10-28 10:27:00,
2013-10-28 05:32:00,66.7,59.3,30.08,SE,135,4.6,4.6,77,0.00,CLR,,0.00,730.0,WeatherDisplay:10.37,2013-10-28 10:32:00,
2013-10-28 05:37:00,66.7,59.3,30.08,SE,135,1.2,1.8,77,0.00,CLR,,0.00,730.0,WeatherDisplay:10.37,2013-10-28 10:37:00,
2013-10-28 05:42:00,66.7,59.3,30.08,South,180,2.3,2.3,77,0.00,CLR,,0.00,730.0,WeatherDisplay:10.37,2013-10-28 10:42:00,
2013-10-28 05:47:00,66.7,59.3,30.09,SSE,158,2.3,2.3,77,0.00,CLR,,0.00,730.0,WeatherDisplay:10.37,2013-10-28 10:47:00,
2013-10-28 05:52:00,66.7,59.3,30.09,SE,135,2.4,2.4,77,0.00,CLR,,0.00,730.0,WeatherDisplay:10.37,2013-10-28 10:52:00,
2013-10-28 05:57:00,66.7,59.3,30.09,SE,135,1.8,1.8,77,0.00,CLR,,0.00,730.0,WeatherDisplay:10.37,2013-10-28 10:57:00,
2013-10-28 06:02:00,66.7,59.3,30.09,ESE,112,2.3,2.3,77,0.00,CLR,,0.00,730.0,WeatherDisplay:10.37,2013-10-28 11:02:00,
2013-10-28 06:07:00,66.7,59.3,30.09,ESE,112,2.3,2.3,77,0.00,CLR,,0.00,730.0,WeatherDisplay:10.37,2013-10-28 11:07:00,
2013-10-28 06:12:00,66.7,59.3,30.09,SE,135,2.3,2.3,77,0.00,CLR,,0.00,730.0,WeatherDisplay:10.37,2013-10-28 11:12:00,
2013-10-28 06:17:00,66.7,59.3,30.09,SE,135,2.3,2.3,77,0.00,CLR,,0.00,730.0,WeatherDisplay:10.37,2013-10-28 11:17:00,
2013-10-28 06:22:00,66.7,59.3,30.09,SSE,158,1.2,1.7,77,0.00,CLR,,0.00,730.0,WeatherDisplay:10.37,2013-10-28 11:22:00,
2013-10-28 06:27:00,66.7,59.3,30.10,ESE,112,2.3,2.3,77,0.00,CLR,,0.00,730.0,WeatherDisplay:10.37,2013-10-28 11:27:00,
2013-10-28 06:32:00,66.7,59.3,30.10,ESE,112,3.5,3.5,77,0.00,CLR,,0.00,730.0,WeatherDisplay:10.37,2013-10-28 11:32:00,
2013-10-28 06:37:00,66.7,59.3,30.10,SW,225,0.0,1.5,77,0.00,CLR,,0.00,730.0,WeatherDisplay:10.37,2013-10-28 11:37:00,
2013-10-28 06:42:00,66.7,59.3,30.10,East,90,2.3,2.3,77,0.00,CLR,,0.00,730.0,WeatherDisplay:10.37,2013-10-28 11:42:00,
2013-10-28 06:47:00,66.7,59.3,30.09,ESE,112,2.3,2.3,77,0.00,CLR,,0.00,730.0,WeatherDisplay:10.37,2013-10-28 11:47:00,
2013-10-28 06:52:00,66.7,59.3,30.09,ESE,112,3.5,3.5,77,0.00,CLR,,0.00,730.0,WeatherDisplay:10.37,2013-10-28 11:52:00,
2013-10-28 06:57:00,66.7,59.3,30.09,East,90,2.3,2.3,77,0.00,CLR,,0.00,730.0,WeatherDisplay:10.37,2013-10-28 11:57:00,
2013-10-28 07:03:00,66.7,59.3,30.09,ESE,112,3.5,3.5,77,0.00,CLR,,0.00,730.0,WeatherDisplay:10.37,2013-10-28 12:03:00,
2013-10-28 07:08:00,66.7,59.3,30.10,ESE,112,3.5,3.5,77,0.00,CLR,,0.00,730.0,WeatherDisplay:10.37,2013-10-28 12:08:00,
2013-10-28 07:13:00,66.7,59.3,30.10,ESE,112,4.6,4.6,77,0.00,OVC,,0.00,730.0,WeatherDisplay:10.37,2013-10-28 12:13:00,
2013-10-28 07:18:00,66.7,59.3,30.10,NE,45,3.5,3.5,77,0.00,OVC,,0.00,730.0,WeatherDisplay:10.37,2013-10-28 12:18:00,
2013-10-28 07:23:00,66.7,59.3,30.10,SE,135,3.5,3.5,77,0.00,OVC,,0.00,730.0,WeatherDisplay:10.37,2013-10-28 12:23:00,
2013-10-28 07:28:00,66.7,59.3,30.10,WNW,292,3.5,3.5,77,0.00,OVC,,0.00,730.0,WeatherDisplay:10.37,2013-10-28 12:28:00,
2013-10-28 07:33:00,66.7,59.3,30.10,SSE,158,3.5,3.5,77,0.00,OVC,,0.00,730.0,WeatherDisplay:10.37,2013-10-28 12:33:00,
2013-10-28 07:38:00,66.7,59.3,30.10,SE,135,6.9,6.9,77,0.00,OVC,,0.00,730.0,WeatherDisplay:10.37,2013-10-28 12:38:00,
2013-10-28 07:43:00,66.7,59.3,30.10,East,90,3.5,3.5,77,0.00,OVC,,0.00,730.0,WeatherDisplay:10.37,2013-10-28 12:43:00,
2013-10-28 07:48:00,66.7,59.3,30.11,ESE,112,3.5,3.5,77,0.00,OVC,,0.00,730.0,WeatherDisplay:10.37,2013-10-28 12:48:00,
2013-10-28 07:53:00,66.7,59.3,30.11,SE,135,2.3,2.6,77,0.00,OVC,,0.00,730.0,WeatherDisplay:10.37,2013-10-28 12:53:00,
2013-10-28 07:58:00,63.0,60.3,30.11,SE,135,3.5,3.5,91,0.00,OVC,,0.00,730.0,WeatherDisplay:10.37,2013-10-28 12:58:00,
2013-10-28 08:03:00,63.0,60.3,30.11,SE,135,5.8,5.8,91,0.00,OVC,,0.00,730.0,WeatherDisplay:10.37,2013-10-28 13:03:00,
2013-10-28 08:08:00,63.0,60.3,30.11,South,180,3.5,3.5,91,0.00,OVC,,0.00,730.0,WeatherDisplay:10.37,2013-10-28 13:08:00,
2013-10-28 08:13:00,63.1,60.5,30.11,ESE,112,6.9,6.9,91,0.00,OVC,,0.00,730.0,WeatherDisplay:10.37,2013-10-28 13:13:00,
2013-10-28 08:18:00,63.1,60.5,30.11,SE,135,5.8,5.8,91,0.00,OVC,,0.00,730.0,WeatherDisplay:10.37,2013-10-28 13:18:00,
2013-10-28 08:23:00,63.1,60.5,30.11,SE,135,2.3,3.5,91,0.00,OVC,,0.00,730.0,WeatherDisplay:10.37,2013-10-28 13:23:00,
2013-10-28 08:28:00,63.1,60.5,30.12,SSE,158,5.8,5.8,91,0.00,OVC,,0.00,730.0,WeatherDisplay:10.37,2013-10-28 13:28:00,
2013-10-28 08:33:00,63.1,60.5,30.12,East,90,4.6,4.6,91,0.00,OVC,,0.00,730.0,WeatherDisplay:10.37,2013-10-28 13:33:00,
2013-10-28 08:38:00,63.1,60.2,30.12,ESE,112,5.8,5.8,90,0.00,OVC,,0.00,730.0,WeatherDisplay:10.37,2013-10-28 13:38:00,
2013-10-28 08:43:00,63.1,60.2,30.12,ESE,112,3.5,3.5,90,0.00,OVC,,0.00,730.0,WeatherDisplay:10.37,2013-10-28 13:43:00,
2013-10-28 08:48:00,63.3,60.3,30.13,SE,135,6.9,6.9,90,0.00,OVC,,0.00,730.0,WeatherDisplay:10.37,2013-10-28 13:48:00,
2013-10-28 08:53:00,63.3,60.3,30.13,SE,135,3.5,3.5,90,0.00,OVC,,0.00,730.0,WeatherDisplay:10.37,2013-10-28 13:53:00,
2013-10-28 08:58:00,63.3,60.3,30.13,ESE,112,8.1,8.1,90,0.00,OVC,,0.00,730.0,WeatherDisplay:10.37,2013-10-28 13:58:00,
2013-10-28 09:03:00,63.5,60.5,30.13,East,90,2.3,3.8,90,0.00,OVC,,0.00,730.0,WeatherDisplay:10.37,2013-10-28 14:03:00,
2013-10-28 09:08:00,63.7,60.7,30.13,SE,135,4.6,4.6,90,0.00,OVC,,0.00,730.0,WeatherDisplay:10.37,2013-10-28 14:08:00,
2013-10-28 09:13:00,63.9,60.9,30.13,ESE,112,3.5,3.5,90,0.00,OVC,,0.00,730.0,WeatherDisplay:10.37,2013-10-28 14:13:00,
2013-10-28 09:18:00,63.7,60.7,30.13,SSE,158,5.8,5.8,90,0.00,OVC,,0.00,730.0,WeatherDisplay:10.37,2013-10-28 14:18:00,
2013-10-28 09:23:00,63.9,60.9,30.13,SE,135,3.5,3.7,90,0.00,OVC,,0.00,730.0,WeatherDisplay:10.37,2013-10-28 14:23:00,
2013-10-28 09:28:00,64.0,61.0,30.15,SE,135,4.6,4.6,90,0.00,OVC,,0.00,730.0,WeatherDisplay:10.37,2013-10-28 14:28:00,
2013-10-28 09:33:00,64.2,61.2,30.15,East,90,3.8,3.8,90,0.00,OVC,,0.00,730.0,WeatherDisplay:10.37,2013-10-28 14:33:00,
2013-10-28 09:38:00,64.2,61.2,30.15,East,90,3.5,3.5,90,0.00,OVC,,0.00,730.0,WeatherDisplay:10.37,2013-10-28 14:38:00,
2013-10-28 09:43:00,64.6,61.6,30.15,ESE,112,5.8,5.8,90,0.00,OVC,,0.00,730.0,WeatherDisplay:10.37,2013-10-28 14:43:00,
2013-10-28 09:48:00,64.4,61.4,30.16,SSE,158,4.6,4.6,90,0.00,OVC,,0.00,730.0,WeatherDisplay:10.37,2013-10-28 14:48:00,
2013-10-28 09:53:00,64.6,61.3,30.16,ESE,112,3.5,3.5,89,0.00,OVC,,0.00,730.0,WeatherDisplay:10.37,2013-10-28 14:53:00,
2013-10-28 09:58:00,64.9,61.6,30.16,SE,135,4.6,4.6,89,0.00,OVC,,0.00,730.0,WeatherDisplay:10.37,2013-10-28 14:58:00,
2013-10-28 10:03:00,64.9,61.6,30.16,SSE,158,6.9,6.9,89,0.00,OVC,,0.00,730.0,WeatherDisplay:10.37,2013-10-28 15:03:00,
2013-10-28 10:08:00,65.1,61.8,30.16,ESE,112,3.5,3.5,89,0.00,OVC,,0.00,730.0,WeatherDisplay:10.37,2013-10-28 15:08:00,
2013-10-28 10:13:00,65.1,61.8,30.16,SE,135,5.8,5.8,89,0.00,OVC,,0.00,730.0,WeatherDisplay:10.37,2013-10-28 15:13:00,
2013-10-28 10:18:00,65.1,61.5,30.16,SSW,202,4.6,4.6,88,0.00,OVC,,0.00,730.0,WeatherDisplay:10.37,2013-10-28 15:18:00,
2013-10-28 10:23:00,65.3,61.7,30.16,ESE,112,3.5,3.5,88,0.00,OVC,,0.00,730.0,WeatherDisplay:10.37,2013-10-28 15:23:00,
2013-10-28 10:28:00,65.7,62.0,30.16,South,180,4.6,4.6,88,0.00,OVC,,0.00,730.0,WeatherDisplay:10.37,2013-10-28 15:28:00,
2013-10-28 10:33:00,65.8,62.2,30.16,SE,135,5.8,5.8,88,0.00,OVC,,0.00,730.0,WeatherDisplay:10.37,2013-10-28 15:33:00,
2013-10-28 10:38:00,66.0,62.4,30.16,ESE,112,5.8,5.8,88,0.00,OVC,,0.00,730.0,WeatherDisplay:10.37,2013-10-28 15:38:00,
2013-10-28 10:43:00,66.2,62.5,30.16,SE,135,4.6,4.6,88,0.00,OVC,,0.00,730.0,WeatherDisplay:10.37,2013-10-28 15:43:00,
2013-10-28 10:48:00,66.6,62.9,30.16,SSE,158,6.9,6.9,88,0.00,OVC,,0.00,730.0,WeatherDisplay:10.37,2013-10-28 15:48:00,
2013-10-28 10:53:00,66.7,62.7,30.16,West,270,8.1,8.1,87,0.00,OVC,,0.00,730.0,WeatherDisplay:10.37,2013-10-28 15:53:00,
2013-10-28 10:58:00,66.6,62.6,30.16,SE,135,6.9,6.9,87,0.00,OVC,,0.00,730.0,WeatherDisplay:10.37,2013-10-28 15:58:00,
2013-10-28 11:03:00,66.9,62.9,30.16,SSE,158,3.5,3.5,87,0.00,OVC,,0.00,730.0,WeatherDisplay:10.37,2013-10-28 16:03:00,
2013-10-28 11:08:00,67.3,63.3,30.14,ESE,112,5.8,5.8,87,0.00,OVC,,0.00,730.0,WeatherDisplay:10.37,2013-10-28 16:08:00,
2013-10-28 11:13:00,67.3,62.9,30.14,SE,135,5.8,5.8,86,0.00,OVC,,0.00,730.0,WeatherDisplay:10.37,2013-10-28 16:13:00,
2013-10-28 11:18:00,67.3,62.9,30.14,SE,135,8.1,8.1,86,0.00,OVC,,0.00,730.0,WeatherDisplay:10.37,2013-10-28 16:18:00,
2013-10-28 11:23:00,67.5,63.1,30.14,SE,135,6.9,6.9,86,0.00,OVC,,0.00,730.0,WeatherDisplay:10.37,2013-10-28 16:23:00,
2013-10-28 11:28:00,67.6,63.3,30.16,ESE,112,2.3,2.4,86,0.00,OVC,,0.00,730.0,WeatherDisplay:10.37,2013-10-28 16:28:00,
2013-10-28 11:33:00,67.8,63.5,30.16,SSE,158,3.5,3.5,86,0.00,OVC,,0.00,730.0,WeatherDisplay:10.37,2013-10-28 16:33:00,
2013-10-28 11:38:00,68.2,63.8,30.16,SSE,158,5.8,5.8,86,0.00,OVC,,0.00,730.0,WeatherDisplay:10.37,2013-10-28 16:38:00,
2013-10-28 11:43:00,68.2,63.8,30.16,SSE,158,0.0,2.6,86,0.00,OVC,,0.00,730.0,WeatherDisplay:10.37,2013-10-28 16:43:00,
2013-10-28 11:48:00,68.4,64.0,30.16,SE,135,6.9,6.9,86,0.00,OVC,,0.00,730.0,WeatherDisplay:10.37,2013-10-28 16:48:00,
2013-10-28 11:53:00,68.7,64.4,30.16,ESE,112,8.1,8.1,86,0.00,OVC,,0.00,730.0,WeatherDisplay:10.37,2013-10-28 16:53:00,
2013-10-28 11:58:00,68.7,64.4,30.16,South,180,9.2,9.2,86,0.00,OVC,,0.00,730.0,WeatherDisplay:10.37,2013-10-28 16:58:00,
2013-10-28 12:03:00,68.9,64.5,30.16,ENE,68,2.3,3.8,86,0.00,OVC,,0.00,730.0,WeatherDisplay:10.37,2013-10-28 17:03:00,
2013-10-28 12:08:00,68.9,64.5,30.15,ENE,68,2.3,3.8,86,0.00,OVC,,0.00,730.0,WeatherDisplay:10.37,2013-10-28 17:08:00,
2013-10-28 12:13:00,69.3,64.9,30.15,North,0,3.5,3.5,86,0.00,OVC,,0.00,730.0,WeatherDisplay:10.37,2013-10-28 17:13:00,
2013-10-28 12:18:00,69.3,64.9,30.15,SE,135,2.3,3.2,86,0.00,OVC,,0.00,730.0,WeatherDisplay:10.37,2013-10-28 17:18:00,
2013-10-28 12:23:00,69.4,65.1,30.15,SE,135,1.2,2.6,86,0.00,OVC,,0.00,730.0,WeatherDisplay:10.37,2013-10-28 17:23:00,
2013-10-28 12:28:00,69.4,64.7,30.15,South,180,6.9,6.9,85,0.00,OVC,,0.00,730.0,WeatherDisplay:10.37,2013-10-28 17:28:00,
2013-10-28 12:33:00,69.3,64.6,30.15,SSE,158,2.3,2.3,85,0.00,OVC,,0.00,730.0,WeatherDisplay:10.37,2013-10-28 17:33:00,
2013-10-28 12:39:00,69.4,65.1,30.15,SE,135,4.9,4.9,86,0.00,OVC,,0.00,730.0,WeatherDisplay:10.37,2013-10-28 17:39:00,
2013-10-28 12:44:00,69.3,64.6,30.15,SSE,158,5.8,5.8,85,0.00,OVC,,0.00,730.0,WeatherDisplay:10.37,2013-10-28 17:44:00,
2013-10-28 12:49:00,69.4,64.7,30.14,East,90,4.6,4.6,85,0.00,CLR,,0.00,730.0,WeatherDisplay:10.37,2013-10-28 17:49:00,
2013-10-28 12:54:00,69.4,65.1,30.14,SSE,158,6.9,6.9,86,0.00,CLR,,0.00,730.0,WeatherDisplay:10.37,2013-10-28 17:54:00,
2013-10-28 12:59:00,69.4,65.1,30.14,NE,45,4.6,4.6,86,0.00,CLR,,0.00,730.0,WeatherDisplay:10.37,2013-10-28 17:59:00,
2013-10-28 13:04:00,70.0,65.6,30.14,South,180,0.0,1.8,86,0.00,CLR,,0.00,730.0,WeatherDisplay:10.37,2013-10-28 18:04:00,
2013-10-28 13:09:00,69.8,65.1,30.13,South,180,5.8,5.8,85,0.00,CLR,,0.00,730.0,WeatherDisplay:10.37,2013-10-28 18:09:00,
2013-10-28 13:14:00,69.8,65.1,30.13,SSE,158,6.9,6.9,85,0.00,CLR,,0.00,730.0,WeatherDisplay:10.37,2013-10-28 18:14:00,
2013-10-28 13:19:00,70.0,65.6,30.13,SSE,158,5.8,5.8,86,0.00,CLR,,0.00,730.0,WeatherDisplay:10.37,2013-10-28 18:19:00,
2013-10-28 13:24:00,70.2,65.4,30.13,ESE,112,4.6,4.6,85,0.00,CLR,,0.00,730.0,WeatherDisplay:10.37,2013-10-28 18:24:00,
2013-10-28 13:29:00,70.3,65.6,30.12,SE,135,6.9,6.9,85,0.00,CLR,,0.00,730.0,WeatherDisplay:10.37,2013-10-28 18:29:00,
2013-10-28 13:34:00,70.5,65.8,30.12,SSW,202,4.6,4.6,85,0.00,CLR,,0.00,730.0,WeatherDisplay:10.37,2013-10-28 18:34:00,
2013-10-28 13:39:00,70.9,66.1,30.12,South,180,2.3,3.7,85,0.00,CLR,,0.00,730.0,WeatherDisplay:10.37,2013-10-28 18:39:00,
2013-10-28 13:44:00,70.9,66.1,30.12,SE,135,5.8,5.8,85,0.00,CLR,,0.00,730.0,WeatherDisplay:10.37,2013-10-28 18:44:00,
2013-10-28 13:49:00,71.4,66.7,30.11,ESE,112,2.3,3.7,85,0.00,CLR,,0.00,730.0,WeatherDisplay:10.37,2013-10-28 18:49:00,
2013-10-28 13:54:00,71.8,67.0,30.11,SSE,158,9.2,9.2,85,0.00,CLR,,0.00,730.0,WeatherDisplay:10.37,2013-10-28 18:54:00,
2013-10-28 13:59:00,72.0,66.9,30.11,WSW,248,7.2,7.2,84,0.00,CLR,,0.00,730.0,WeatherDisplay:10.37,2013-10-28 18:59:00,
2013-10-28 14:04:00,72.3,67.2,30.11,SE,135,6.1,6.1,84,0.00,CLR,,0.00,730.0,WeatherDisplay:10.37,2013-10-28 19:04:00,
2013-10-28 14:09:00,72.5,67.4,30.09,SE,135,5.9,5.9,84,0.00,CLR,,0.00,730.0,WeatherDisplay:10.37,2013-10-28 19:09:00,
2013-10-28 14:14:00,73.0,67.6,30.09,SE,135,6.2,6.2,83,0.00,CLR,,0.00,730.0,WeatherDisplay:10.37,2013-10-28 19:14:00,
2013-10-28 14:19:00,73.0,67.6,30.09,ESE,112,6.9,6.9,83,0.00,CLR,,0.00,730.0,WeatherDisplay:10.37,2013-10-28 19:19:00,
2013-10-28 14:24:00,73.6,67.7,30.09,SSE,158,4.6,4.6,82,0.00,CLR,,0.00,730.0,WeatherDisplay:10.37,2013-10-28 19:24:00,
2013-10-28 14:29:00,73.6,67.7,30.08,SE,135,5.8,5.8,82,0.00,CLR,,0.00,730.0,WeatherDisplay:10.37,2013-10-28 19:29:00,
2013-10-28 14:34:00,73.8,67.9,30.08,SSE,158,6.9,6.9,82,0.00,CLR,,0.00,730.0,WeatherDisplay:10.37,2013-10-28 19:34:00,
2013-10-28 14:39:00,73.8,67.6,30.08,ESE,112,8.1,8.1,81,0.00,CLR,,0.00,730.0,WeatherDisplay:10.37,2013-10-28 19:39:00,
2013-10-28 14:44:00,73.9,67.7,30.08,SSE,158,10.4,10.4,81,0.00,CLR,,0.00,730.0,WeatherDisplay:10.37,2013-10-28 19:44:00,
2013-10-28 14:49:00,74.1,67.9,30.07,ESE,112,2.3,5.4,81,0.00,CLR,,0.00,730.0,WeatherDisplay:10.37,2013-10-28 19:49:00,
2013-10-28 14:54:00,73.9,67.7,30.07,SE,135,11.5,11.5,81,0.00,CLR,,0.00,730.0,WeatherDisplay:10.37,2013-10-28 19:54:00,
2013-10-28 14:59:00,74.3,68.1,30.07,SSE,158,1.4,4.0,81,0.00,CLR,,0.00,730.0,WeatherDisplay:10.37,2013-10-28 19:59:00,
2013-10-28 15:04:00,74.1,67.9,30.07,SE,135,7.5,7.5,81,0.00,CLR,,0.00,730.0,WeatherDisplay:10.37,2013-10-28 20:04:00,
2013-10-28 15:09:00,74.3,67.7,30.07,SE,135,5.2,5.2,80,0.00,CLR,,0.00,730.0,WeatherDisplay:10.37,2013-10-28 20:09:00,
2013-10-28 15:14:00,74.1,67.6,30.07,SE,135,8.1,8.1,80,0.00,CLR,,0.00,730.0,WeatherDisplay:10.37,2013-10-28 20:14:00,
2013-10-28 15:19:00,74.3,67.4,30.07,ESE,112,2.8,4.0,79,0.00,CLR,,0.00,730.0,WeatherDisplay:10.37,2013-10-28 20:19:00,
2013-10-28 15:24:00,74.3,67.4,30.07,East,90,5.8,5.8,79,0.00,CLR,,0.00,730.0,WeatherDisplay:10.37,2013-10-28 20:24:00,
2013-10-28 15:29:00,74.3,67.4,30.08,ESE,112,9.2,9.2,79,0.00,CLR,,0.00,730.0,WeatherDisplay:10.37,2013-10-28 20:29:00,
2013-10-28 15:34:00,74.3,67.0,30.08,WSW,248,5.8,5.8,78,0.00,CLR,,0.00,730.0,WeatherDisplay:10.37,2013-10-28 20:34:00,
2013-10-28 15:39:00,74.3,67.0,30.08,South,180,2.3,2.3,78,0.00,CLR,,0.00,730.0,WeatherDisplay:10.37,2013-10-28 20:39:00,
2013-10-28 15:44:00,74.3,66.6,30.08,South,180,3.6,3.6,77,0.00,CLR,,0.00,730.0,WeatherDisplay:10.37,2013-10-28 20:44:00,
2013-10-28 15:49:00,74.3,66.6,30.06,West,270,3.5,3.5,77,0.00,CLR,,0.00,730.0,WeatherDisplay:10.37,2013-10-28 20:49:00,
2013-10-28 15:54:00,74.3,66.6,30.06,SSE,158,2.3,2.3,77,0.00,CLR,,0.00,730.0,WeatherDisplay:10.37,2013-10-28 20:54:00,
2013-10-28 15:59:00,74.3,66.6,30.06,SSW,202,6.9,6.9,77,0.00,CLR,,0.00,730.0,WeatherDisplay:10.37,2013-10-28 20:59:00,
2013-10-28 16:04:00,74.3,66.6,30.06,SE,135,5.8,5.8,77,0.00,CLR,,0.00,730.0,WeatherDisplay:10.37,2013-10-28 21:04:00,
2013-10-28 16:09:00,74.3,66.6,30.06,ESE,112,2.3,2.9,77,0.00,CLR,,0.00,730.0,WeatherDisplay:10.37,2013-10-28 21:09:00,
2013-10-28 16:14:00,74.5,66.8,30.06,SSE,158,2.3,2.9,77,0.00,CLR,,0.00,730.0,WeatherDisplay:10.37,2013-10-28 21:14:00,
2013-10-28 16:19:00,74.5,66.8,30.06,SSE,158,2.3,2.3,77,0.00,CLR,,0.00,730.0,WeatherDisplay:10.37,2013-10-28 21:19:00,
2013-10-28 16:24:00,74.5,67.2,30.06,SSE,158,3.5,3.5,78,0.00,CLR,,0.00,730.0,WeatherDisplay:10.37,2013-10-28 21:24:00,
2013-10-28 16:29:00,74.7,67.3,30.06,SSW,202,3.5,3.5,78,0.00,CLR,,0.00,730.0,WeatherDisplay:10.37,2013-10-28 21:29:00,
2013-10-28 16:34:00,74.8,67.5,30.06,SE,135,4.6,4.6,78,0.00,CLR,,0.00,730.0,WeatherDisplay:10.37,2013-10-28 21:34:00,
2013-10-28 16:39:00,75.0,67.3,30.06,SE,135,7.4,7.4,77,0.00,CLR,,0.00,730.0,WeatherDisplay:10.37,2013-10-28 21:39:00,
2013-10-28 16:44:00,75.0,67.3,30.06,South,180,4.6,4.6,77,0.00,CLR,,0.00,730.0,WeatherDisplay:10.37,2013-10-28 21:44:00,
2013-10-28 16:49:00,75.0,67.3,30.06,SSE,158,5.8,5.8,77,0.00,CLR,,0.00,730.0,WeatherDisplay:10.37,2013-10-28 21:49:00,
2013-10-28 16:54:00,75.0,67.3,30.06,ESE,112,9.2,9.2,77,0.00,CLR,,0.00,730.0,WeatherDisplay:10.37,2013-10-28 21:54:00,
2013-10-28 16:59:00,75.0,67.3,30.06,SSE,158,6.9,6.9,77,0.00,CLR,,0.00,730.0,WeatherDisplay:10.37,2013-10-28 21:59:00,
2013-10-28 17:04:00,75.0,67.3,30.06,SSE,158,6.9,6.9,77,0.00,CLR,,0.00,730.0,WeatherDisplay:10.37,2013-10-28 22:04:00,
2013-10-28 17:09:00,75.0,67.3,30.06,SSE,158,5.8,5.8,77,0.00,CLR,,0.00,730.0,WeatherDisplay:10.37,2013-10-28 22:09:00,
2013-10-28 17:14:00,75.0,67.3,30.06,SE,135,6.9,6.9,77,0.00,CLR,,0.00,730.0,WeatherDisplay:10.37,2013-10-28 22:14:00,
2013-10-28 17:19:00,75.0,67.3,30.06,SE,135,3.5,4.3,77,0.00,CLR,,0.00,730.0,WeatherDisplay:10.37,2013-10-28 22:19:00,
2013-10-28 17:24:00,75.0,67.3,30.06,SE,135,8.1,8.1,77,0.00,CLR,,0.00,730.0,WeatherDisplay:10.37,2013-10-28 22:24:00,
2013-10-28 17:29:00,75.0,67.3,30.06,South,180,6.9,6.9,77,0.00,CLR,,0.00,730.0,WeatherDisplay:10.37,2013-10-28 22:29:00,
2013-10-28 17:34:00,75.0,67.3,30.06,NE,45,4.6,4.6,77,0.00,CLR,,0.00,730.0,WeatherDisplay:10.37,2013-10-28 22:34:00,
2013-10-28 17:39:00,75.0,67.3,30.06,ESE,112,4.6,4.6,77,0.00,CLR,,0.00,730.0,WeatherDisplay:10.37,2013-10-28 22:39:00,
2013-10-28 17:44:00,75.0,67.3,30.06,ESE,112,8.4,8.4,77,0.00,CLR,,0.00,730.0,WeatherDisplay:10.37,2013-10-28 22:44:00,
2013-10-28 17:49:00,75.0,67.3,30.05,SE,135,5.8,5.8,77,0.00,CLR,,0.00,730.0,WeatherDisplay:10.37,2013-10-28 22:49:00,
2013-10-28 17:54:00,75.0,67.3,30.05,ESE,112,8.1,8.1,77,0.00,CLR,,0.00,730.0,WeatherDisplay:10.37,2013-10-28 22:54:00,
2013-10-28 17:59:00,75.0,67.3,30.05,South,180,7.1,7.1,77,0.00,CLR,,0.00,730.0,WeatherDisplay:10.37,2013-10-28 22:59:00,
2013-10-28 18:04:00,75.0,67.3,30.05,SE,135,9.2,9.2,77,0.00,CLR,,0.00,730.0,WeatherDisplay:10.37,2013-10-28 23:04:00,
2013-10-28 18:09:00,75.0,67.3,30.05,SSE,158,3.5,5.2,77,0.00,CLR,,0.00,730.0,WeatherDisplay:10.37,2013-10-28 23:09:00,
2013-10-28 18:14:00,75.0,67.3,30.05,SE,135,5.8,5.8,77,0.00,CLR,,0.00,730.0,WeatherDisplay:10.37,2013-10-28 23:14:00,
2013-10-28 18:19:00,75.0,67.3,30.05,ESE,112,4.6,4.6,77,0.00,CLR,,0.00,730.0,WeatherDisplay:10.37,2013-10-28 23:19:00,
2013-10-28 18:25:00,75.0,67.3,30.05,SE,135,8.1,8.1,77,0.00,CLR,,0.00,730.0,WeatherDisplay:10.37,2013-10-28 23:25:00,
2013-10-28 18:30:00,75.0,67.3,30.05,SSE,158,5.8,5.8,77,0.00,CLR,,0.00,730.0,WeatherDisplay:10.37,2013-10-28 23:30:00,
2013-10-28 18:35:00,75.0,67.3,30.05,SSE,158,3.5,4.3,77,0.00,CLR,,0.00,730.0,WeatherDisplay:10.37,2013-10-28 23:35:00,
2013-10-28 18:40:00,75.0,67.3,30.05,ESE,112,4.6,4.6,77,0.00,CLR,,0.00,730.0,WeatherDisplay:10.37,2013-10-28 23:40:00,
2013-10-28 18:45:00,75.0,67.3,30.05,ESE,112,5.8,5.8,77,0.00,CLR,,0.00,730.0,WeatherDisplay:10.37,2013-10-28 23:45:00,
2013-10-28 18:50:00,75.0,67.3,30.06,SE,135,3.5,3.5,77,0.00,CLR,,0.00,730.0,WeatherDisplay:10.37,2013-10-28 23:50:00,
2013-10-28 18:55:00,75.0,67.3,30.06,ESE,112,4.6,4.6,77,0.00,CLR,,0.00,730.0,WeatherDisplay:10.37,2013-10-28 23:55:00,
2013-10-28 19:00:00,75.0,67.3,30.06,ESE,112,3.5,3.5,77,0.00,CLR,,0.00,0.0,WeatherDisplay:10.37,2013-10-29 00:00:00,
2013-10-28 19:05:00,75.0,67.3,30.06,SE,135,2.9,2.9,77,0.00,CLR,,0.00,0.0,WeatherDisplay:10.37,2013-10-29 00:05:00,
2013-10-28 19:10:00,75.0,67.3,30.06,ESE,112,3.5,3.5,77,0.00,CLR,,0.00,0.0,WeatherDisplay:10.37,2013-10-29 00:10:00,
2013-10-28 19:15:00,75.0,67.3,30.06,ESE,112,5.8,5.8,77,0.00,CLR,,0.00,0.0,WeatherDisplay:10.37,2013-10-29 00:15:00,
2013-10-28 19:20:00,75.0,67.3,30.06,SE,135,4.6,4.6,77,0.00,CLR,,0.00,0.0,WeatherDisplay:10.37,2013-10-29 00:20:00,
2013-10-28 19:25:00,75.0,67.3,30.06,ESE,112,5.8,5.8,77,0.00,CLR,,0.00,0.0,WeatherDisplay:10.37,2013-10-29 00:25:00,
2013-10-28 19:30:00,75.0,67.3,30.06,ESE,112,4.6,4.6,77,0.00,CLR,,0.00,0.0,WeatherDisplay:10.37,2013-10-29 00:30:00,
2013-10-28 19:35:00,75.0,67.3,30.06,SSE,158,3.5,3.5,77,0.00,CLR,,0.00,0.0,WeatherDisplay:10.37,2013-10-29 00:35:00,
2013-10-28 19:40:00,75.0,67.3,30.06,SE,135,3.5,3.5,77,0.00,CLR,,0.00,0.0,WeatherDisplay:10.37,2013-10-29 00:40:00,
2013-10-28 19:45:00,75.0,67.3,30.06,SE,135,5.8,5.8,77,0.00,CLR,,0.00,0.0,WeatherDisplay:10.37,2013-10-29 00:45:00,
2013-10-28 19:50:00,75.0,67.3,30.07,SW,225,4.6,4.6,77,0.00,CLR,,0.00,0.0,WeatherDisplay:10.37,2013-10-29 00:50:00,
2013-10-28 19:55:00,75.0,67.3,30.07,ESE,112,3.5,3.5,77,0.00,CLR,,0.00,0.0,WeatherDisplay:10.37,2013-10-29 00:55:00,
2013-10-28 20:00:00,75.0,67.3,30.07,ESE,112,4.6,4.6,77,0.00,CLR,,0.00,0.0,WeatherDisplay:10.37,2013-10-29 01:00:00,
2013-10-28 20:05:00,75.0,67.3,30.07,ESE,112,4.6,4.6,77,0.00,CLR,,0.00,0.0,WeatherDisplay:10.37,2013-10-29 01:05:00,
2013-10-28 20:10:00,75.0,67.3,30.07,SE,135,3.9,3.9,77,0.00,CLR,,0.00,0.0,WeatherDisplay:10.37,2013-10-29 01:10:00,
2013-10-28 20:15:00,75.0,67.3,30.07,ENE,68,5.8,5.8,77,0.00,CLR,,0.00,0.0,WeatherDisplay:10.37,2013-10-29 01:15:00,
2013-10-28 20:20:00,75.0,67.3,30.07,SE,135,5.8,5.8,77,0.00,CLR,,0.00,0.0,WeatherDisplay:10.37,2013-10-29 01:20:00,
2013-10-28 20:25:00,75.0,67.3,30.07,ESE,112,4.6,4.6,77,0.00,CLR,,0.00,0.0,WeatherDisplay:10.37,2013-10-29 01:25:00,
2013-10-28 20:30:00,75.0,67.3,30.08,ESE,112,4.6,4.6,77,0.00,CLR,,0.00,0.0,WeatherDisplay:10.37,2013-10-29 01:30:00,
2013-10-28 20:35:00,75.0,67.3,30.08,SE,135,4.6,4.6,77,0.00,CLR,,0.00,0.0,WeatherDisplay:10.37,2013-10-29 01:35:00,
2013-10-28 20:40:00,75.0,67.3,30.08,North,0,5.8,5.8,77,0.00,CLR,,0.00,0.0,WeatherDisplay:10.37,2013-10-29 01:40:00,
2013-10-28 20:45:00,75.0,67.3,30.08,SE,135,3.9,3.9,77,0.00,CLR,,0.00,0.0,WeatherDisplay:10.37,2013-10-29 01:45:00,
2013-10-28 20:50:00,75.0,67.3,30.09,SE,135,3.7,3.7,77,0.00,CLR,,0.00,0.0,WeatherDisplay:10.37,2013-10-29 01:50:00,
2013-10-28 20:55:00,75.0,67.3,30.09,SSE,158,6.9,6.9,77,0.00,CLR,,0.00,0.0,WeatherDisplay:10.37,2013-10-29 01:55:00,
2013-10-28 21:00:00,75.0,67.3,30.09,SE,135,6.0,6.0,77,0.00,CLR,,0.00,0.0,WeatherDisplay:10.37,2013-10-29 02:00:00,
2013-10-28 21:05:00,75.0,67.3,30.09,ENE,68,4.6,4.6,77,0.00,CLR,,0.00,0.0,WeatherDisplay:10.37,2013-10-29 02:05:00,
2013-10-28 21:10:00,75.0,67.3,30.09,ESE,112,5.8,5.8,77,0.00,CLR,,0.00,0.0,WeatherDisplay:10.37,2013-10-29 02:10:00,
2013-10-28 21:15:00,75.0,67.3,30.09,SE,135,4.9,4.9,77,0.00,CLR,,0.00,0.0,WeatherDisplay:10.37,2013-10-29 02:15:00,
2013-10-28 21:20:00,75.0,67.3,30.09,SE,135,9.2,9.2,77,0.00,CLR,,0.00,0.0,WeatherDisplay:10.37,2013-10-29 02:20:00,
2013-10-28 21:25:00,75.0,67.3,30.09,SSE,158,8.1,8.1,77,0.00,CLR,,0.00,0.0,WeatherDisplay:10.37,2013-10-29 02:25:00,
2013-10-28 21:30:00,75.0,67.3,30.09,SSE,158,9.2,9.2,77,0.00,CLR,,0.00,0.0,WeatherDisplay:10.37,2013-10-29 02:30:00,
2013-10-28 21:35:00,75.0,67.3,30.09,ESE,112,6.9,6.9,77,0.00,CLR,,0.00,0.0,WeatherDisplay:10.37,2013-10-29 02:35:00,
2013-10-28 21:40:00,75.0,67.3,30.09,SE,135,9.2,9.2,77,0.00,CLR,,0.00,0.0,WeatherDisplay:10.37,2013-10-29 02:40:00,
2013-10-28 21:45:00,75.0,67.3,30.09,SSE,158,5.8,5.8,77,0.00,CLR,,0.00,0.0,WeatherDisplay:10.37,2013-10-29 02:45:00,
2013-10-28 21:50:00,75.0,67.3,30.09,ESE,112,8.1,8.1,77,0.00,CLR,,0.00,0.0,WeatherDisplay:10.37,2013-10-29 02:50:00,
2013-10-28 21:55:00,75.0,67.3,30.09,SE,135,2.3,4.9,77,0.00,CLR,,0.00,0.0,WeatherDisplay:10.37,2013-10-29 02:55:00,
2013-10-28 22:01:00,75.0,67.3,30.09,SSE,158,3.9,4.7,77,0.00,CLR,,0.00,0.0,WeatherDisplay:10.37,2013-10-29 03:01:00,
2013-10-28 22:06:00,75.0,67.3,30.09,ESE,112,9.1,9.1,77,0.00,CLR,,0.00,0.0,WeatherDisplay:10.37,2013-10-29 03:06:00,
2013-10-28 22:11:00,75.0,67.3,30.09,SSE,158,5.8,5.8,77,0.00,CLR,,0.00,0.0,WeatherDisplay:10.37,2013-10-29 03:11:00,
2013-10-28 22:16:00,75.0,67.3,30.09,SE,135,7.0,7.0,77,0.00,CLR,,0.00,0.0,WeatherDisplay:10.37,2013-10-29 03:16:00,
2013-10-28 22:21:00,75.0,67.3,30.09,ESE,112,8.1,8.1,77,0.00,CLR,,0.00,0.0,WeatherDisplay:10.37,2013-10-29 03:21:00,
2013-10-28 22:26:00,75.0,67.3,30.09,SE,135,6.9,6.9,77,0.00,CLR,,0.00,0.0,WeatherDisplay:10.37,2013-10-29 03:26:00,
2013-10-28 22:31:00,75.0,67.3,30.09,ESE,112,5.8,5.8,77,0.00,CLR,,0.00,0.0,WeatherDisplay:10.37,2013-10-29 03:31:00,
2013-10-28 22:36:00,75.0,67.3,30.09,SE,135,6.9,6.9,77,0.00,CLR,,0.00,0.0,WeatherDisplay:10.37,2013-10-29 03:36:00,
2013-10-28 22:41:00,75.0,67.3,30.09,ESE,112,9.2,9.2,77,0.00,CLR,,0.00,0.0,WeatherDisplay:10.37,2013-10-29 03:41:00,
2013-10-28 22:46:00,75.0,67.3,30.09,NNE,22,6.9,6.9,77,0.00,CLR,,0.00,0.0,WeatherDisplay:10.37,2013-10-29 03:46:00,
2013-10-28 22:51:00,75.0,67.3,30.10,ESE,112,4.6,5.2,77,0.00,CLR,,0.00,0.0,WeatherDisplay:10.37,2013-10-29 03:51:00,
2013-10-28 22:56:00,75.0,67.3,30.10,SE,135,6.9,6.9,77,0.00,CLR,,0.00,0.0,WeatherDisplay:10.37,2013-10-29 03:56:00,
2013-10-28 23:01:00,75.0,67.3,30.10,SE,135,5.8,5.8,77,0.00,CLR,,0.00,0.0,WeatherDisplay:10.37,2013-10-29 04:01:00,
2013-10-28 23:06:00,75.0,67.3,30.10,SE,135,10.4,10.4,77,0.00,CLR,,0.00,0.0,WeatherDisplay:10.37,2013-10-29 04:06:00,
2013-10-28 23:11:00,75.0,67.3,30.08,SSE,158,7.0,7.0,77,0.00,CLR,,0.00,0.0,WeatherDisplay:10.37,2013-10-29 04:11:00,
2013-10-28 23:16:00,75.0,67.3,30.08,ESE,112,9.2,9.2,77,0.00,CLR,,0.00,0.0,WeatherDisplay:10.37,2013-10-29 04:16:00,
2013-10-28 23:21:00,75.0,67.3,30.08,ESE,112,6.6,6.6,77,0.00,CLR,,0.00,0.0,WeatherDisplay:10.37,2013-10-29 04:21:00,
2013-10-28 23:26:00,75.0,67.3,30.08,SE,135,6.9,6.9,77,0.00,CLR,,0.00,0.0,WeatherDisplay:10.37,2013-10-29 04:26:00,
2013-10-28 23:31:00,75.0,67.3,30.08,SE,135,5.8,5.8,77,0.00,CLR,,0.00,0.0,WeatherDisplay:10.37,2013-10-29 04:31:00,
2013-10-28 23:36:00,75.0,67.3,30.08,SE,135,6.2,6.2,77,0.00,CLR,,0.00,0.0,WeatherDisplay:10.37,2013-10-29 04:36:00,
2013-10-28 23:41:00,75.0,67.3,30.08,SE,135,4.6,4.9,77,0.00,CLR,,0.00,0.0,WeatherDisplay:10.37,2013-10-29 04:41:00,
2013-10-28 23:46:00,75.0,67.3,30.08,ESE,112,5.8,5.8,77,0.00,CLR,,0.00,0.0,WeatherDisplay:10.37,2013-10-29 04:46:00,
2013-10-28 23:51:00,75.0,67.3,30.11,SSE,158,3.5,4.6,77,0.00,CLR,,0.00,0.0,WeatherDisplay:10.37,2013-10-29 04:51:00,
2013-10-28 23:56:00,75.0,67.3,30.11,ESE,112,5.8,5.8,77,0.00,CLR,,0.00,0.0,WeatherDisplay:10.37,2013-10-29 04:56:00,